createdAt,value
2018-10-18T00:01:35.716Z,75.37
2018-10-18T00:04:05.077Z,74.48
2018-10-18T00:06:34.435Z,74.88
2018-10-18T00:09:04.581Z,74.10
2018-10-18T00:11:33.918Z,74.06
2018-10-18T00:14:03.286Z,73.58
2018-10-18T00:16:32.592Z,73.94
2018-10-18T00:19:01.917Z,74.40
2018-10-18T00:21:31.293Z,74.71
2018-10-18T00:24:01.070Z,74.19
2018-10-18T00:26:30.716Z,73.94
2018-10-18T00:29:00.204Z,73.54
2018-10-18T00:31:29.831Z,73.86
2018-10-18T00:33:59.207Z,73.82
2018-10-18T00:36:28.629Z,73.82
2018-10-18T00:38:57.955Z,74.17
2018-10-18T00:41:27.292Z,73.96
2018-10-18T00:43:56.904Z,74.24
2018-10-18T00:46:26.837Z,73.29
2018-10-18T00:48:56.143Z,74.22
2018-10-18T00:51:25.452Z,74.32
2018-10-18T00:53:54.797Z,74.49
2018-10-18T00:56:24.029Z,74.18
2018-10-18T00:58:53.343Z,74.17
2018-10-18T01:01:22.667Z,74.08
2018-10-18T01:03:51.940Z,74.00
2018-10-18T01:06:21.243Z,74.59
2018-10-18T01:08:50.630Z,74.60
2018-10-18T01:11:20.588Z,74.58
2018-10-18T01:13:49.858Z,74.75
2018-10-18T01:16:19.161Z,74.43
2018-10-18T01:18:48.476Z,74.20
2018-10-18T01:21:17.874Z,74.39
2018-10-18T01:23:47.210Z,74.23
2018-10-18T01:26:16.665Z,73.51
2018-10-18T01:28:45.831Z,73.78
2018-10-18T01:31:15.260Z,74.07
2018-10-18T01:33:44.569Z,73.99
2018-10-18T01:36:13.968Z,73.54
2018-10-18T01:38:43.979Z,73.39
2018-10-18T01:41:13.282Z,75.42
2018-10-18T01:43:42.587Z,74.82
2018-10-18T01:46:11.878Z,75.07
2018-10-18T01:48:41.175Z,74.91
2018-10-18T01:51:17.648Z,74.89
2018-10-18T01:53:47.371Z,74.56
2018-10-18T01:56:16.716Z,73.53
2018-10-18T01:58:45.994Z,73.99
2018-10-18T02:01:15.359Z,74.01
2018-10-18T02:03:44.707Z,73.98
2018-10-18T02:06:21.451Z,73.57
2018-10-18T02:08:50.776Z,73.93
2018-10-18T02:11:20.050Z,73.46
2018-10-18T02:13:49.433Z,73.51
2018-10-18T02:16:18.702Z,73.27
2018-10-18T02:18:48.143Z,72.97
2018-10-18T02:21:17.446Z,73.00
2018-10-18T02:23:46.764Z,72.61
2018-10-18T02:26:16.050Z,72.81
2018-10-18T02:28:45.958Z,72.38
2018-10-18T02:31:15.273Z,73.19
2018-10-18T02:33:44.541Z,72.57
2018-10-18T02:36:13.922Z,72.54
2018-10-18T02:38:43.198Z,71.87
2018-10-18T02:41:12.651Z,72.10
2018-10-18T02:43:41.956Z,73.15
2018-10-18T02:46:11.299Z,72.28
2018-10-18T02:48:40.598Z,72.51
2018-10-18T02:51:10.138Z,72.28
2018-10-18T02:53:39.507Z,73.80
2018-10-18T02:56:09.014Z,74.06
2018-10-18T02:58:38.384Z,73.42
2018-10-18T03:01:07.641Z,73.88
2018-10-18T03:03:36.947Z,72.90
2018-10-18T03:06:06.430Z,73.59
2018-10-18T03:08:35.886Z,72.40
2018-10-18T03:11:05.872Z,72.57
2018-10-18T03:13:35.299Z,72.82
2018-10-18T03:16:04.701Z,72.80
2018-10-18T03:18:34.004Z,72.75
2018-10-18T03:21:03.322Z,72.48
2018-10-18T03:23:32.617Z,72.12
2018-10-18T03:26:01.907Z,72.98
2018-10-18T03:28:31.199Z,71.86
2018-10-18T03:31:00.506Z,72.50
2018-10-18T03:33:29.805Z,72.32
2018-10-18T03:35:59.346Z,72.09
2018-10-18T03:38:28.610Z,72.01
2018-10-18T03:40:57.883Z,72.17
2018-10-18T03:43:27.182Z,71.76
2018-10-18T03:45:56.558Z,72.23
2018-10-18T03:48:25.858Z,72.24
2018-10-18T03:50:55.237Z,72.36
2018-10-18T03:53:24.478Z,74.01
2018-10-18T03:55:53.779Z,71.88
2018-10-18T03:58:23.186Z,71.71
2018-10-18T04:00:52.485Z,70.87
2018-10-18T04:03:21.903Z,70.12
2018-10-18T04:05:51.185Z,71.14
2018-10-18T04:08:20.482Z,70.84
2018-10-18T04:10:49.755Z,70.83
2018-10-18T04:13:19.091Z,70.80
2018-10-18T04:15:48.525Z,70.23
2018-10-18T04:18:17.799Z,71.23
2018-10-18T04:20:47.313Z,71.44
2018-10-18T04:23:33.155Z,71.21
2018-10-18T04:26:03.650Z,70.59
2018-10-18T04:28:33.801Z,70.94
2018-10-18T04:31:04.094Z,70.91
2018-10-18T04:33:34.016Z,71.07
2018-10-18T04:36:03.450Z,71.47
2018-10-18T04:38:32.660Z,71.01
2018-10-18T04:41:02.697Z,71.12
2018-10-18T04:43:31.987Z,70.84
2018-10-18T04:46:01.503Z,71.76
2018-10-18T04:48:30.910Z,71.52
2018-10-18T04:51:00.117Z,71.43
2018-10-18T04:53:29.595Z,71.33
2018-10-18T04:55:58.905Z,70.58
2018-10-18T04:58:28.797Z,70.51
2018-10-18T05:00:58.166Z,70.02
2018-10-18T05:03:27.863Z,70.58
2018-10-18T05:06:01.522Z,71.52
2018-10-18T05:08:31.192Z,71.98
2018-10-18T05:11:00.458Z,71.86
2018-10-18T05:13:29.838Z,71.96
2018-10-18T05:15:59.206Z,71.55
2018-10-18T05:18:28.550Z,71.99
2018-10-18T05:20:57.909Z,71.70
2018-10-18T05:23:27.458Z,71.24
2018-10-18T05:25:57.082Z,71.32
2018-10-18T05:28:26.412Z,70.97
2018-10-18T05:30:55.782Z,70.73
2018-10-18T05:33:25.077Z,70.87
2018-10-18T05:35:54.492Z,71.57
2018-10-18T05:38:23.779Z,72.43
2018-10-18T05:40:53.076Z,72.75
2018-10-18T05:43:24.299Z,72.79
2018-10-18T05:45:55.290Z,72.52
2018-10-18T05:48:24.661Z,71.58
2018-10-18T05:50:53.964Z,70.91
2018-10-18T05:53:23.324Z,71.89
2018-10-18T05:55:52.704Z,72.14
2018-10-18T05:58:22.139Z,72.28
2018-10-18T06:00:51.878Z,72.60
2018-10-18T06:03:24.545Z,72.68
2018-10-18T06:05:54.126Z,71.53
2018-10-18T06:08:23.466Z,71.48
2018-10-18T06:11:09.601Z,70.94
2018-10-18T06:13:38.901Z,71.20
2018-10-18T06:16:08.189Z,71.42
2018-10-18T06:18:37.542Z,72.04
2018-10-18T06:21:06.848Z,71.84
2018-10-18T06:23:36.175Z,71.17
2018-10-18T06:26:06.137Z,71.25
2018-10-18T06:28:35.450Z,71.04
2018-10-18T06:31:05.196Z,71.23
2018-10-18T06:33:34.531Z,72.27
2018-10-18T06:36:03.791Z,72.80
2018-10-18T06:38:33.100Z,72.90
2018-10-18T06:41:02.480Z,72.52
2018-10-18T06:43:38.555Z,71.52
2018-10-18T06:46:11.096Z,72.66
2018-10-18T06:48:40.913Z,72.67
2018-10-18T06:51:10.824Z,71.88
2018-10-18T06:53:40.746Z,72.55
2018-10-18T06:56:10.099Z,72.80
2018-10-18T06:58:39.349Z,73.04
2018-10-18T07:01:08.990Z,72.55
2018-10-18T07:03:38.417Z,72.19
2018-10-18T07:06:07.713Z,72.40
2018-10-18T07:08:37.324Z,72.07
2018-10-18T07:11:07.001Z,71.79
2018-10-18T07:13:36.266Z,72.23
2018-10-18T07:16:06.009Z,71.47
2018-10-18T07:18:35.338Z,70.98
2018-10-18T07:21:04.942Z,70.83
2018-10-18T07:23:34.274Z,70.74
2018-10-18T07:26:03.606Z,70.17
2018-10-18T07:28:32.925Z,70.72
2018-10-18T07:31:02.659Z,69.42
2018-10-18T07:33:31.958Z,66.82
2018-10-18T07:36:01.259Z,65.41
2018-10-18T07:38:30.543Z,66.33
2018-10-18T07:40:59.918Z,66.75
2018-10-18T07:43:29.201Z,67.38
2018-10-18T07:45:58.527Z,67.91
2018-10-18T07:48:27.966Z,68.19
2018-10-18T07:50:57.329Z,68.50
2018-10-18T07:53:27.050Z,68.21
2018-10-18T07:55:56.304Z,68.39
2018-10-18T07:58:25.683Z,67.93
2018-10-18T08:00:55.037Z,67.92
2018-10-18T08:03:24.514Z,67.69
2018-10-18T08:05:53.842Z,67.62
2018-10-18T08:08:23.291Z,66.97
2018-10-18T08:10:52.617Z,65.64
2018-10-18T08:13:21.943Z,65.86
2018-10-18T08:15:51.398Z,64.80
2018-10-18T08:18:20.728Z,64.39
2018-10-18T08:20:50.060Z,64.77
2018-10-18T08:23:19.427Z,64.45
2018-10-18T08:25:48.726Z,64.38
2018-10-18T08:28:18.040Z,65.28
2018-10-18T08:30:47.404Z,66.84
2018-10-18T08:33:16.743Z,66.24
2018-10-18T08:35:46.050Z,66.18
2018-10-18T08:38:16.160Z,66.60
2018-10-18T08:40:45.463Z,67.37
2018-10-18T08:43:14.807Z,67.13
2018-10-18T08:45:44.086Z,66.65
2018-10-18T08:48:13.371Z,65.63
2018-10-18T08:50:42.675Z,64.35
2018-10-18T08:53:12.290Z,63.93
2018-10-18T08:55:41.576Z,63.44
2018-10-18T08:58:10.882Z,62.74
2018-10-18T09:00:40.256Z,62.38
2018-10-18T09:03:09.554Z,61.48
2018-10-18T09:05:38.866Z,60.08
2018-10-18T09:08:08.232Z,56.71
2018-10-18T09:10:37.583Z,56.67
2018-10-18T09:13:06.828Z,55.32
2018-10-18T09:15:36.207Z,55.90
2018-10-18T09:18:05.497Z,54.38
2018-10-18T09:20:34.811Z,47.88
2018-10-18T09:23:06.179Z,44.43
2018-10-18T09:25:35.529Z,45.62
2018-10-18T09:28:04.931Z,45.12
2018-10-18T09:30:34.248Z,44.46
2018-10-18T09:33:03.533Z,46.11
2018-10-18T09:35:32.911Z,47.55
2018-10-18T09:38:02.322Z,41.67
2018-10-18T09:40:31.640Z,37.64
2018-10-18T09:43:00.934Z,38.87
2018-10-18T09:45:30.411Z,39.31
2018-10-18T09:47:59.750Z,35.50
2018-10-18T09:50:29.047Z,30.01
2018-10-18T09:52:58.444Z,28.06
2018-10-18T09:55:30.797Z,30.44
2018-10-18T09:58:00.162Z,35.55
2018-10-18T10:00:34.588Z,39.22
2018-10-18T10:03:09.383Z,40.41
2018-10-18T10:05:38.646Z,42.58
2018-10-18T10:08:07.968Z,44.76
2018-10-18T10:10:37.573Z,45.78
2018-10-18T10:13:07.908Z,47.31
2018-10-18T10:15:37.282Z,47.30
2018-10-18T10:18:08.745Z,48.08
2018-10-18T10:20:38.065Z,46.84
2018-10-18T10:23:07.366Z,48.15
2018-10-18T10:25:39.031Z,48.73
2018-10-18T10:28:08.320Z,43.75
2018-10-18T10:30:37.657Z,36.93
2018-10-18T10:33:07.073Z,36.51
2018-10-18T10:35:36.963Z,35.78
2018-10-18T10:38:07.616Z,31.58
2018-10-18T10:40:36.932Z,30.06
2018-10-18T10:43:06.386Z,30.79
2018-10-18T10:45:35.956Z,28.07
2018-10-18T10:48:05.423Z,25.39
2018-10-18T10:50:34.710Z,26.04
2018-10-18T10:53:04.098Z,25.24
2018-10-18T10:55:33.431Z,25.80
2018-10-18T10:58:02.847Z,25.48
2018-10-18T11:01:16.695Z,27.29
2018-10-18T11:03:46.446Z,31.34
2018-10-18T11:06:16.238Z,34.36
2018-10-18T11:08:45.684Z,37.61
2018-10-18T11:11:15.717Z,38.43
2018-10-18T11:13:45.047Z,40.21
2018-10-18T11:16:14.381Z,36.91
2018-10-18T11:18:45.296Z,36.24
2018-10-18T11:21:16.320Z,31.79
2018-10-18T11:23:45.556Z,30.82
2018-10-18T11:26:14.961Z,31.28
2018-10-18T11:28:44.266Z,32.31
2018-10-18T11:31:13.541Z,34.19
2018-10-18T11:33:43.060Z,35.82
2018-10-18T11:36:13.761Z,37.55
2018-10-18T11:38:42.997Z,39.66
2018-10-18T11:41:12.353Z,39.60
2018-10-18T11:43:41.728Z,39.10
2018-10-18T11:46:11.041Z,38.36
2018-10-18T11:48:40.319Z,38.29
2018-10-18T11:51:09.706Z,37.66
2018-10-18T11:53:39.090Z,36.95
2018-10-18T11:56:08.490Z,36.93
2018-10-18T11:58:37.884Z,37.63
2018-10-18T12:01:07.211Z,36.33
2018-10-18T12:03:36.503Z,38.87
2018-10-18T12:06:07.952Z,38.10
2018-10-18T12:08:38.878Z,40.36
2018-10-18T12:11:08.246Z,42.07
2018-10-18T12:13:37.493Z,41.45
2018-10-18T12:16:06.857Z,41.84
2018-10-18T12:18:37.199Z,42.74
2018-10-18T12:21:06.640Z,43.85
2018-10-18T12:23:36.979Z,44.23
2018-10-18T12:26:06.335Z,45.04
2018-10-18T12:28:37.757Z,46.91
2018-10-18T12:31:07.236Z,47.48
2018-10-18T12:33:36.641Z,47.55
2018-10-18T12:36:06.324Z,47.75
2018-10-18T12:38:35.725Z,48.78
2018-10-18T12:41:06.728Z,49.54
2018-10-18T12:43:35.972Z,49.89
2018-10-18T12:46:05.567Z,51.46
2018-10-18T12:48:34.978Z,50.97
2018-10-18T12:51:04.775Z,51.54
2018-10-18T12:53:34.276Z,51.14
2018-10-18T12:56:03.661Z,52.85
2018-10-18T12:58:33.108Z,52.36
2018-10-18T13:01:03.040Z,52.55
2018-10-18T13:03:33.251Z,53.02
2018-10-18T13:06:02.688Z,54.58
2018-10-18T13:08:32.202Z,55.89
2018-10-18T13:11:01.626Z,56.12
2018-10-18T13:13:32.734Z,57.04
2018-10-18T13:16:02.693Z,58.19
2018-10-18T13:18:32.067Z,59.40
2018-10-18T13:21:01.533Z,60.36
2018-10-18T13:23:32.189Z,60.62
2018-10-18T13:26:02.300Z,61.60
2018-10-18T13:28:31.611Z,62.82
2018-10-18T13:31:01.700Z,63.04
2018-10-18T13:33:31.066Z,63.38
2018-10-18T13:36:00.520Z,63.39
2018-10-18T13:38:29.779Z,64.39
2018-10-18T13:40:59.237Z,64.34
2018-10-18T13:43:28.685Z,64.08
2018-10-18T13:45:57.993Z,64.80
2018-10-18T13:48:27.294Z,65.10
2018-10-18T13:50:56.611Z,66.27
2018-10-18T13:53:25.884Z,67.11
2018-10-18T13:55:55.214Z,67.75
2018-10-18T13:58:24.903Z,67.33
2018-10-18T14:00:54.283Z,66.88
2018-10-18T14:03:23.590Z,67.54
2018-10-18T14:05:52.951Z,68.13
2018-10-18T14:08:22.374Z,68.20
2018-10-18T14:10:52.609Z,68.74
2018-10-18T14:13:22.243Z,69.15
2018-10-18T14:15:51.555Z,69.96
2018-10-18T14:18:20.845Z,69.61
2018-10-18T14:20:50.243Z,69.28
2018-10-18T14:23:19.778Z,69.60
2018-10-18T14:25:49.313Z,69.54
2018-10-18T14:28:18.651Z,69.91
2018-10-18T14:30:48.766Z,68.58
2018-10-18T14:33:18.040Z,68.53
2018-10-18T14:35:47.344Z,67.62
2018-10-18T14:38:16.706Z,67.56
2018-10-18T14:40:45.986Z,68.54
2018-10-18T14:43:15.717Z,68.47
2018-10-18T14:45:46.595Z,68.00
2018-10-18T14:48:15.903Z,67.88
2018-10-18T14:50:45.494Z,67.96
2018-10-18T14:53:14.918Z,68.28
2018-10-18T14:55:44.253Z,69.14
2018-10-18T14:58:13.881Z,68.45
2018-10-18T15:00:43.333Z,67.89
2018-10-18T15:03:12.648Z,68.31
2018-10-18T15:05:43.957Z,67.78
2018-10-18T15:08:13.363Z,66.91
2018-10-18T15:10:42.676Z,67.16
2018-10-18T15:13:11.993Z,68.00
2018-10-18T15:15:41.350Z,67.87
2018-10-18T15:18:10.761Z,66.92
2018-10-18T15:20:40.895Z,66.79
2018-10-18T15:23:10.285Z,66.96
2018-10-18T15:25:39.782Z,66.94
2018-10-18T15:28:09.412Z,66.21
2018-10-18T15:30:39.259Z,66.51
2018-10-18T15:33:09.840Z,67.57
2018-10-18T15:35:40.272Z,67.26
2018-10-18T15:38:10.537Z,66.60
2018-10-18T15:40:40.547Z,66.70
2018-10-18T15:43:09.984Z,65.22
2018-10-18T15:45:39.285Z,66.49
2018-10-18T15:48:09.099Z,67.15
2018-10-18T15:50:45.158Z,66.63
2018-10-18T15:53:14.634Z,65.12
2018-10-18T15:55:43.932Z,65.15
2018-10-18T15:58:13.438Z,65.67
2018-10-18T16:00:42.800Z,64.86
2018-10-18T16:03:13.030Z,63.72
2018-10-18T16:05:42.351Z,64.34
2018-10-18T16:08:12.201Z,64.24
2018-10-18T16:10:41.572Z,65.02
2018-10-18T16:13:11.071Z,64.47
2018-10-18T16:15:40.411Z,63.90
2018-10-18T16:18:09.801Z,64.22
2018-10-18T16:20:39.118Z,64.52
2018-10-18T16:23:08.465Z,64.49
2018-10-18T16:25:37.965Z,64.51
2018-10-18T16:28:07.348Z,64.01
2018-10-18T16:30:37.262Z,63.99
2018-10-18T16:33:07.718Z,64.58
2018-10-18T16:35:37.059Z,64.50
2018-10-18T16:38:07.772Z,64.81
2018-10-18T16:40:37.370Z,64.23
2018-10-18T16:43:06.845Z,64.30
2018-10-18T16:45:36.380Z,65.37
2018-10-18T16:48:05.884Z,64.63
2018-10-18T16:50:35.212Z,65.92
2018-10-18T16:53:07.522Z,65.53
2018-10-18T16:55:37.515Z,64.92
2018-10-18T16:58:07.443Z,65.46
2018-10-18T17:00:36.731Z,64.93
2018-10-18T17:03:06.108Z,66.07
2018-10-18T17:05:36.335Z,66.48
2018-10-18T17:08:05.796Z,66.40
2018-10-18T17:10:35.629Z,66.55
2018-10-18T17:13:05.279Z,66.54
2018-10-18T17:15:34.941Z,66.39
2018-10-18T17:18:04.438Z,66.60
2018-10-18T17:20:34.088Z,67.69
2018-10-18T17:23:03.929Z,67.26
2018-10-18T17:25:33.295Z,66.90
2018-10-18T17:28:02.648Z,66.23
2018-10-18T17:30:32.022Z,67.04
2018-10-18T17:33:02.158Z,67.13
2018-10-18T17:35:33.361Z,66.93
2018-10-18T17:38:03.261Z,67.60
2018-10-18T17:40:32.602Z,67.76
2018-10-18T17:43:01.937Z,67.79
2018-10-18T17:45:31.288Z,67.90
2018-10-18T17:48:00.683Z,68.51
2018-10-18T17:50:30.195Z,68.11
2018-10-18T17:53:00.343Z,67.88
2018-10-18T17:55:29.637Z,68.28
2018-10-18T17:57:58.954Z,68.64
2018-10-18T18:00:28.711Z,68.39
2018-10-18T18:02:58.002Z,68.62
2018-10-18T18:05:27.380Z,68.21
2018-10-18T18:07:56.791Z,68.18
2018-10-18T18:10:26.267Z,68.81
2018-10-18T18:12:55.600Z,68.65
2018-10-18T18:15:25.054Z,68.56
2018-10-18T18:17:54.497Z,67.46
2018-10-18T18:20:23.854Z,67.93
2018-10-18T18:22:53.368Z,68.27
2018-10-18T18:25:23.714Z,67.82
2018-10-18T18:27:53.248Z,67.70
2018-10-18T18:30:24.036Z,67.95
2018-10-18T18:32:53.430Z,68.30
2018-10-18T18:35:22.920Z,68.41
2018-10-18T18:37:52.397Z,68.85
2018-10-18T18:40:21.758Z,67.90
2018-10-18T18:42:51.072Z,68.30
2018-10-18T18:45:21.760Z,68.00
2018-10-18T18:47:51.117Z,68.75
2018-10-18T18:50:20.613Z,68.11
2018-10-18T18:52:49.964Z,68.42
2018-10-18T18:55:19.430Z,68.27
2018-10-18T18:57:49.348Z,68.27
2018-10-18T19:00:18.839Z,69.17
2018-10-18T19:02:48.186Z,69.33
2018-10-18T19:05:17.576Z,68.59
2018-10-18T19:07:47.567Z,69.14
2018-10-18T19:10:16.975Z,68.81
2018-10-18T19:12:46.404Z,68.84
2018-10-18T19:15:15.898Z,68.75
2018-10-18T19:17:45.351Z,68.81
2018-10-18T19:20:14.920Z,69.60
2018-10-18T19:22:44.511Z,69.62
2018-10-18T19:25:14.706Z,69.44
2018-10-18T19:27:44.152Z,69.98
2018-10-18T19:30:13.790Z,69.34
2018-10-18T19:32:43.280Z,69.42
2018-10-18T19:35:12.705Z,69.93
2018-10-18T19:37:42.169Z,70.15
2018-10-18T19:40:11.605Z,69.79
2018-10-18T19:42:41.711Z,70.17
2018-10-18T19:45:11.312Z,69.64
2018-10-18T19:47:40.760Z,69.86
2018-10-18T19:50:10.307Z,69.63
2018-10-18T19:52:39.905Z,69.88
2018-10-18T19:55:09.944Z,69.83
2018-10-18T19:57:40.391Z,69.96
2018-10-18T20:00:10.665Z,69.77
2018-10-18T20:02:40.020Z,69.14
2018-10-18T20:05:09.638Z,69.67
2018-10-18T20:07:39.278Z,69.07
2018-10-18T20:10:09.031Z,68.44
2018-10-18T20:12:38.442Z,69.37
2018-10-18T20:15:08.831Z,69.17
2018-10-18T20:17:38.310Z,69.28
2018-10-18T20:20:10.085Z,69.16
2018-10-18T20:22:39.569Z,69.45
2018-10-18T20:25:09.756Z,69.23
2018-10-18T20:27:39.134Z,68.84
2018-10-18T20:30:12.790Z,69.20
2018-10-18T20:32:42.872Z,70.46
2018-10-18T20:35:12.639Z,70.25
2018-10-18T20:37:42.524Z,69.80
2018-10-18T20:40:14.087Z,70.56
2018-10-18T20:42:43.850Z,70.57
2018-10-18T20:45:19.497Z,70.24
2018-10-18T20:47:49.157Z,70.26
2018-10-18T20:50:18.441Z,70.66
2018-10-18T20:52:48.358Z,70.71
2018-10-18T20:55:17.811Z,71.37
2018-10-18T20:57:47.155Z,71.46
2018-10-18T21:00:16.605Z,71.02
2018-10-18T21:02:45.855Z,70.94
2018-10-18T21:05:17.077Z,70.83
2018-10-18T21:07:46.640Z,71.89
2018-10-18T21:10:16.099Z,71.09
2018-10-18T21:12:45.415Z,71.63
2018-10-18T21:15:15.779Z,71.47
2018-10-18T21:17:45.105Z,71.12
2018-10-18T21:20:14.509Z,71.38
2018-10-18T21:22:43.932Z,71.77
2018-10-18T21:25:13.330Z,71.32
2018-10-18T21:27:42.747Z,71.22
2018-10-18T21:30:12.052Z,71.38
2018-10-18T21:32:41.407Z,71.98
2018-10-18T21:35:10.865Z,71.78
2018-10-18T21:37:40.512Z,71.35
2018-10-18T21:40:09.848Z,71.04
2018-10-18T21:42:39.155Z,71.22
2018-10-18T21:45:08.785Z,71.10
2018-10-18T21:47:38.148Z,71.66
2018-10-18T21:50:07.545Z,71.42
2018-10-18T21:52:36.973Z,71.01
2018-10-18T21:55:07.121Z,71.81
2018-10-18T21:57:36.493Z,71.86
2018-10-18T22:00:11.861Z,71.19
2018-10-18T22:02:41.369Z,71.64
2018-10-18T22:05:11.131Z,71.68
2018-10-18T22:07:40.456Z,71.58
2018-10-18T22:10:10.385Z,72.18
2018-10-18T22:12:39.700Z,72.53
2018-10-18T22:15:10.528Z,71.96
2018-10-18T22:17:39.770Z,72.03
2018-10-18T22:20:10.589Z,71.79
2018-10-18T22:22:40.034Z,71.94
2018-10-18T22:25:10.052Z,72.02
2018-10-18T22:27:39.348Z,72.00
2018-10-18T22:30:08.998Z,72.25
2018-10-18T22:32:38.362Z,72.26
2018-10-18T22:35:07.670Z,72.71
2018-10-18T22:37:36.981Z,72.83
2018-10-18T22:40:07.431Z,73.54
2018-10-18T22:42:36.819Z,74.03
2018-10-18T22:45:07.578Z,73.35
2018-10-18T22:47:36.913Z,73.16
2018-10-18T22:50:06.250Z,73.10
2018-10-18T22:52:35.571Z,73.45
2018-10-18T22:55:05.001Z,73.07
2018-10-18T22:57:34.297Z,73.01
2018-10-18T23:00:03.579Z,72.69
2018-10-18T23:02:33.874Z,72.82
2018-10-18T23:05:03.362Z,72.69
2018-10-18T23:07:32.727Z,72.73
2018-10-18T23:10:02.274Z,72.81
2018-10-18T23:12:31.574Z,73.26
2018-10-18T23:15:00.955Z,73.18
2018-10-18T23:17:30.250Z,73.18
2018-10-18T23:19:59.573Z,73.07
2018-10-18T23:22:28.959Z,73.18
2018-10-18T23:24:58.259Z,73.16
2018-10-18T23:27:31.062Z,72.98
2018-10-18T23:30:00.342Z,72.27
2018-10-18T23:32:29.623Z,72.91
2018-10-18T23:34:59.381Z,73.07
2018-10-18T23:37:28.784Z,73.07
2018-10-18T23:39:58.069Z,72.93
2018-10-18T23:42:27.378Z,72.85
2018-10-18T23:44:56.714Z,72.39
2018-10-18T23:47:25.996Z,72.79
2018-10-18T23:49:55.426Z,73.37
2018-10-18T23:52:24.865Z,73.28
2018-10-18T23:54:54.216Z,73.09
2018-10-18T23:57:23.645Z,72.97
2018-10-18T23:59:52.960Z,72.53
